sensor_id;sensor_type;location;lat;lon;timestamp;pressure;altitude;pressure_sealevel;temperature;humidity
33496;BME280;19836;55.812;37.560;2022-10-17T00:00:51;100787.22;;;8.47;55.20
33496;BME280;19836;55.812;37.560;2022-10-17T00:03:19;100783.66;;;8.46;55.45
33496;BME280;19836;55.812;37.560;2022-10-17T00:05:47;100774.72;;;8.47;55.26
33496;BME280;19836;55.812;37.560;2022-10-17T00:08:15;100775.69;;;8.42;55.25
33496;BME280;19836;55.812;37.560;2022-10-17T00:10:41;100763.19;;;8.41;55.31
33496;BME280;19836;55.812;37.560;2022-10-17T00:13:08;100769.44;;;8.44;55.41
33496;BME280;19836;55.812;37.560;2022-10-17T00:15:34;100764.06;;;8.47;55.39
33496;BME280;19836;55.812;37.560;2022-10-17T00:18:00;100758.75;;;8.44;55.46
33496;BME280;19836;55.812;37.560;2022-10-17T00:20:26;100757.84;;;8.41;55.29
33496;BME280;19836;55.812;37.560;2022-10-17T00:22:55;100753.41;;;8.41;55.40
33496;BME280;19836;55.812;37.560;2022-10-17T00:25:21;100755.22;;;8.39;55.42
33496;BME280;19836;55.812;37.560;2022-10-17T00:27:47;100741.88;;;8.35;55.32
33496;BME280;19836;55.812;37.560;2022-10-17T00:30:14;100744.53;;;8.33;55.53
33496;BME280;19836;55.812;37.560;2022-10-17T00:32:40;100741.88;;;8.33;55.55
33496;BME280;19836;55.812;37.560;2022-10-17T00:35:09;100736.53;;;8.33;55.84
33496;BME280;19836;55.812;37.560;2022-10-17T00:37:35;100719.63;;;8.34;55.63
33496;BME280;19836;55.812;37.560;2022-10-17T00:40:02;100724.97;;;8.31;55.76
33496;BME280;19836;55.812;37.560;2022-10-17T00:42:28;100717.84;;;8.33;55.80
33496;BME280;19836;55.812;37.560;2022-10-17T00:45:12;100726.75;;;8.34;55.73
33496;BME280;19836;55.812;37.560;2022-10-17T00:47:38;100719.63;;;8.31;55.80
33496;BME280;19836;55.812;37.560;2022-10-17T00:50:06;100717.88;;;8.30;55.83
33496;BME280;19836;55.812;37.560;2022-10-17T00:52:33;100708.06;;;8.32;56.11
33496;BME280;19836;55.812;37.560;2022-10-17T00:57:37;100710.75;;;8.29;55.89
33496;BME280;19836;55.812;37.560;2022-10-17T01:00:06;100698.31;;;8.24;55.87
33496;BME280;19836;55.812;37.560;2022-10-17T01:02:34;100687.66;;;8.19;56.01
33496;BME280;19836;55.812;37.560;2022-10-17T01:05:00;100695.66;;;8.16;56.02
33496;BME280;19836;55.812;37.560;2022-10-17T01:07:27;100683.22;;;8.13;56.17
33496;BME280;19836;55.812;37.560;2022-10-17T01:09:54;100681.44;;;8.14;56.23
33496;BME280;19836;55.812;37.560;2022-10-17T01:15:02;100671.69;;;8.10;56.56
33496;BME280;19836;55.812;37.560;2022-10-17T01:18:03;100676.13;;;8.08;56.46
33496;BME280;19836;55.812;37.560;2022-10-17T01:23:17;100659.25;;;8.06;56.46
33496;BME280;19836;55.812;37.560;2022-10-17T01:31:18;100657.44;;;8.08;56.61
33496;BME280;19836;55.812;37.560;2022-10-17T01:44:19;100641.38;;;8.17;56.56
33496;BME280;19836;55.812;37.560;2022-10-17T01:46:53;100639.59;;;8.19;56.63
33496;BME280;19836;55.812;37.560;2022-10-17T01:49:26;100633.38;;;8.20;56.49
33496;BME280;19836;55.812;37.560;2022-10-17T01:52:02;100625.34;;;8.17;56.63
33496;BME280;19836;55.812;37.560;2022-10-17T01:54:36;100622.69;;;8.15;56.64
33496;BME280;19836;55.812;37.560;2022-10-17T01:57:10;100622.69;;;8.15;56.57
33496;BME280;19836;55.812;37.560;2022-10-17T01:59:43;100626.28;;;8.12;56.62
33496;BME280;19836;55.812;37.560;2022-10-17T02:02:13;100624.50;;;8.10;56.83
33496;BME280;19836;55.812;37.560;2022-10-17T02:04:41;100621.88;;;8.09;56.75
33496;BME280;19836;55.812;37.560;2022-10-17T02:07:09;100627.22;;;8.06;56.81
33496;BME280;19836;55.812;37.560;2022-10-17T02:09:36;100623.63;;;8.07;56.81
33496;BME280;19836;55.812;37.560;2022-10-17T02:12:28;100639.66;;;8.07;57.15
33496;BME280;19836;55.812;37.560;2022-10-17T02:15:05;100630.75;;;8.11;57.00
33496;BME280;19836;55.812;37.560;2022-10-17T02:20:42;100620.97;;;8.12;56.83
33496;BME280;19836;55.812;37.560;2022-10-17T02:23:25;100614.72;;;8.14;57.06
33496;BME280;19836;55.812;37.560;2022-10-17T02:26:19;100615.63;;;8.12;56.88
33496;BME280;19836;55.812;37.560;2022-10-17T02:31:25;100616.56;;;8.00;57.09
33496;BME280;19836;55.812;37.560;2022-10-17T02:34:15;100619.25;;;7.97;57.15
33496;BME280;19836;55.812;37.560;2022-10-17T02:36:52;100616.59;;;7.97;57.36
33496;BME280;19836;55.812;37.560;2022-10-17T02:39:22;100614.81;;;7.96;57.17
33496;BME280;19836;55.812;37.560;2022-10-17T02:41:51;100619.28;;;7.91;57.37
33496;BME280;19836;55.812;37.560;2022-10-17T02:44:20;100614.84;;;7.85;57.49
33496;BME280;19836;55.812;37.560;2022-10-17T02:46:54;100604.19;;;7.90;57.45
33496;BME280;19836;55.812;37.560;2022-10-17T02:49:27;100609.53;;;7.90;57.54
33496;BME280;19836;55.812;37.560;2022-10-17T02:52:15;100599.75;;;7.83;57.60
33496;BME280;19836;55.812;37.560;2022-10-17T02:57:56;100593.56;;;7.81;57.79
33496;BME280;19836;55.812;37.560;2022-10-17T03:00:25;100595.31;;;7.87;57.45
33496;BME280;19836;55.812;37.560;2022-10-17T03:02:53;100593.50;;;7.87;57.61
33496;BME280;19836;55.812;37.560;2022-10-17T03:05:21;100581.06;;;7.86;57.67
33496;BME280;19836;55.812;37.560;2022-10-17T03:07:47;100583.75;;;7.86;57.84
33496;BME280;19836;55.812;37.560;2022-10-17T03:10:14;100580.19;;;7.87;58.16
33496;BME280;19836;55.812;37.560;2022-10-17T03:12:40;100577.50;;;7.88;57.75
33496;BME280;19836;55.812;37.560;2022-10-17T03:15:08;100573.06;;;7.88;58.01
33496;BME280;19836;55.812;37.560;2022-10-17T03:17:36;100575.75;;;7.86;57.72
33496;BME280;19836;55.812;37.560;2022-10-17T03:20:03;100563.25;;;7.88;58.01
33496;BME280;19836;55.812;37.560;2022-10-17T03:22:30;100556.16;;;7.90;57.89
33496;BME280;19836;55.812;37.560;2022-10-17T03:24:57;100549.00;;;7.95;57.85
33496;BME280;19836;55.812;37.560;2022-10-17T03:27:25;100541.91;;;7.94;57.83
33496;BME280;19836;55.812;37.560;2022-10-17T03:29:52;100544.53;;;7.97;57.76
33496;BME280;19836;55.812;37.560;2022-10-17T03:32:19;100543.66;;;7.97;57.80
33496;BME280;19836;55.812;37.560;2022-10-17T03:34:45;100534.72;;;8.00;57.59
33496;BME280;19836;55.812;37.560;2022-10-17T03:37:11;100536.53;;;7.98;57.59
33496;BME280;19836;55.812;37.560;2022-10-17T03:39:39;100532.94;;;8.01;57.76
33496;BME280;19836;55.812;37.560;2022-10-17T03:42:05;100531.13;;;8.03;57.68
33496;BME280;19836;55.812;37.560;2022-10-17T03:44:31;100529.38;;;8.05;57.64
33496;BME280;19836;55.812;37.560;2022-10-17T03:46:58;100532.00;;;8.08;57.64
33496;BME280;19836;55.812;37.560;2022-10-17T03:49:24;100530.22;;;8.05;57.34
33496;BME280;19836;55.812;37.560;2022-10-17T03:51:58;100536.47;;;8.03;57.44
33496;BME280;19836;55.812;37.560;2022-10-17T03:54:26;100529.38;;;8.02;57.56
33496;BME280;19836;55.812;37.560;2022-10-17T03:56:52;100533.78;;;8.07;57.48
33496;BME280;19836;55.812;37.560;2022-10-17T03:59:19;100524.03;;;8.05;57.54
33496;BME280;19836;55.812;37.560;2022-10-17T04:01:54;100511.59;;;8.04;57.27
33496;BME280;19836;55.812;37.560;2022-10-17T04:04:21;100509.78;;;8.03;57.45
33496;BME280;19836;55.812;37.560;2022-10-17T04:06:48;100507.13;;;8.03;57.57
33496;BME280;19836;55.812;37.560;2022-10-17T04:09:15;100512.44;;;8.07;57.65
33496;BME280;19836;55.812;37.560;2022-10-17T04:11:49;100516.88;;;8.07;57.50
33496;BME280;19836;55.812;37.560;2022-10-17T04:14:17;100510.69;;;8.05;57.73
33496;BME280;19836;55.812;37.560;2022-10-17T04:16:43;100506.25;;;8.04;57.64
33496;BME280;19836;55.812;37.560;2022-10-17T04:19:14;100491.16;;;8.02;57.56
33496;BME280;19836;55.812;37.560;2022-10-17T04:21:49;100501.84;;;7.97;57.85
33496;BME280;19836;55.812;37.560;2022-10-17T04:24:16;100492.91;;;8.02;57.74
33496;BME280;19836;55.812;37.560;2022-10-17T04:27:02;100492.00;;;8.05;57.74
33496;BME280;19836;55.812;37.560;2022-10-17T04:29:31;100488.41;;;8.09;57.74
33496;BME280;19836;55.812;37.560;2022-10-17T04:32:29;100484.78;;;8.13;57.54
33496;BME280;19836;55.812;37.560;2022-10-17T04:35:08;100476.75;;;8.19;57.53
33496;BME280;19836;55.812;37.560;2022-10-17T04:37:34;100472.31;;;8.24;57.42
33496;BME280;19836;55.812;37.560;2022-10-17T04:40:07;100478.50;;;8.28;57.42
33496;BME280;19836;55.812;37.560;2022-10-17T04:42:33;100477.56;;;8.32;57.11
33496;BME280;19836;55.812;37.560;2022-10-17T04:45:03;100472.25;;;8.30;57.05
33496;BME280;19836;55.812;37.560;2022-10-17T04:47:31;100472.31;;;8.24;57.23
33496;BME280;19836;55.812;37.560;2022-10-17T04:49:57;100478.56;;;8.22;57.20
33496;BME280;19836;55.812;37.560;2022-10-17T04:52:23;100468.75;;;8.22;57.13
33496;BME280;19836;55.812;37.560;2022-10-17T04:54:50;100478.50;;;8.25;57.17
33496;BME280;19836;55.812;37.560;2022-10-17T04:57:18;100479.34;;;8.30;56.97
33496;BME280;19836;55.812;37.560;2022-10-17T05:00:05;100469.56;;;8.30;57.03
33496;BME280;19836;55.812;37.560;2022-10-17T05:02:57;100460.66;;;8.33;57.01
33496;BME280;19836;55.812;37.560;2022-10-17T05:05:24;100461.56;;;8.30;57.31
33496;BME280;19836;55.812;37.560;2022-10-17T05:07:52;100461.50;;;8.33;57.27
33496;BME280;19836;55.812;37.560;2022-10-17T05:10:22;100466.91;;;8.30;57.26
33496;BME280;19836;55.812;37.560;2022-10-17T05:12:50;100456.22;;;8.27;57.22
33496;BME280;19836;55.812;37.560;2022-10-17T05:15:18;100454.47;;;8.29;57.25
33496;BME280;19836;55.812;37.560;2022-10-17T05:17:44;100453.50;;;8.33;57.40
33496;BME280;19836;55.812;37.560;2022-10-17T05:20:11;100438.34;;;8.37;57.19
33496;BME280;19836;55.812;37.560;2022-10-17T05:22:37;100445.47;;;8.36;57.34
33496;BME280;19836;55.812;37.560;2022-10-17T05:25:04;100452.56;;;8.40;57.05
33496;BME280;19836;55.812;37.560;2022-10-17T05:27:31;100439.16;;;8.43;56.94
33496;BME280;19836;55.812;37.560;2022-10-17T05:29:57;100466.75;;;8.45;57.20
33496;BME280;19836;55.812;37.560;2022-10-17T05:32:29;100456.00;;;8.48;56.99
33496;BME280;19836;55.812;37.560;2022-10-17T05:34:54;100449.75;;;8.51;56.78
33496;BME280;19836;55.812;37.560;2022-10-17T05:37:22;100440.81;;;8.55;56.89
33496;BME280;19836;55.812;37.560;2022-10-17T05:39:50;100429.19;;;8.60;56.63
33496;BME280;19836;55.812;37.560;2022-10-17T05:42:17;100422.03;;;8.62;56.72
33496;BME280;19836;55.812;37.560;2022-10-17T05:44:45;100407.72;;;8.69;56.61
33496;BME280;19836;55.812;37.560;2022-10-17T05:47:13;100416.50;;;8.77;56.23
33496;BME280;19836;55.812;37.560;2022-10-17T05:49:40;100404.78;;;8.89;56.38
33496;BME280;19836;55.812;37.560;2022-10-17T05:52:07;100408.25;;;8.97;56.24
33496;BME280;19836;55.812;37.560;2022-10-17T05:54:42;100396.59;;;9.02;56.10
33496;BME280;19836;55.812;37.560;2022-10-17T05:57:08;100404.50;;;9.08;55.99
33496;BME280;19836;55.812;37.560;2022-10-17T05:59:35;100397.38;;;9.10;55.66
33496;BME280;19836;55.812;37.560;2022-10-17T06:02:08;100406.31;;;9.08;55.64
33496;BME280;19836;55.812;37.560;2022-10-17T06:04:34;100408.13;;;9.06;55.41
33496;BME280;19836;55.812;37.560;2022-10-17T06:07:01;100392.94;;;9.09;55.32
33496;BME280;19836;55.812;37.560;2022-10-17T06:09:29;100412.47;;;9.14;55.54
33496;BME280;19836;55.812;37.560;2022-10-17T06:11:55;100413.31;;;9.16;55.36
33496;BME280;19836;55.812;37.560;2022-10-17T06:14:22;100405.22;;;9.21;55.25
33496;BME280;19836;55.812;37.560;2022-10-17T06:16:52;100415.97;;;9.19;55.06
33496;BME280;19836;55.812;37.560;2022-10-17T06:19:18;100403.47;;;9.20;55.14
33496;BME280;19836;55.812;37.560;2022-10-17T06:21:45;100410.56;;;9.22;55.74
33496;BME280;19836;55.812;37.560;2022-10-17T06:24:13;100405.19;;;9.25;55.52
33496;BME280;19836;55.812;37.560;2022-10-17T06:26:41;100402.44;;;9.30;55.57
33496;BME280;19836;55.812;37.560;2022-10-17T06:29:09;100405.09;;;9.31;55.37
33496;BME280;19836;55.812;37.560;2022-10-17T06:31:43;100401.56;;;9.29;55.26
33496;BME280;19836;55.812;37.560;2022-10-17T06:34:09;100411.41;;;9.26;55.58
33496;BME280;19836;55.812;37.560;2022-10-17T06:36:37;100402.53;;;9.24;55.56
33496;BME280;19836;55.812;37.560;2022-10-17T06:39:03;100398.06;;;9.24;55.45
33496;BME280;19836;55.812;37.560;2022-10-17T06:41:35;100400.69;;;9.26;55.47
33496;BME280;19836;55.812;37.560;2022-10-17T06:44:04;100385.53;;;9.29;55.05
33496;BME280;19836;55.812;37.560;2022-10-17T06:46:53;100371.16;;;9.33;55.37
33496;BME280;19836;55.812;37.560;2022-10-17T06:49:20;100355.09;;;9.36;55.36
33496;BME280;19836;55.812;37.560;2022-10-17T06:52:07;100359.34;;;9.49;55.54
33496;BME280;19836;55.812;37.560;2022-10-17T06:54:47;100348.28;;;9.70;55.06
33496;BME280;19836;55.812;37.560;2022-10-17T06:57:29;100364.22;;;9.76;55.02
33496;BME280;19836;55.812;37.560;2022-10-17T07:00:13;100352.56;;;9.82;54.42
33496;BME280;19836;55.812;37.560;2022-10-17T07:02:44;100345.13;;;9.97;54.66
33496;BME280;19836;55.812;37.560;2022-10-17T07:05:10;100357.47;;;10.07;54.38
33496;BME280;19836;55.812;37.560;2022-10-17T07:07:36;100362.53;;;10.22;53.85
33496;BME280;19836;55.812;37.560;2022-10-17T07:10:04;100357.88;;;10.32;53.32
33496;BME280;19836;55.812;37.560;2022-10-17T07:12:34;100350.63;;;10.37;52.92
33496;BME280;19836;55.812;37.560;2022-10-17T07:15:01;100362.25;;;10.36;53.36
33496;BME280;19836;55.812;37.560;2022-10-17T07:17:29;100343.91;;;10.16;53.17
33496;BME280;19836;55.812;37.560;2022-10-17T07:19:56;100356.59;;;10.07;53.67
33496;BME280;19836;55.812;37.560;2022-10-17T07:22:23;100377.25;;;9.97;53.41
33496;BME280;19836;55.812;37.560;2022-10-17T07:24:52;100360.22;;;9.48;55.39
33496;BME280;19836;55.812;37.560;2022-10-17T07:27:25;100362.97;;;8.86;57.42
33496;BME280;19836;55.812;37.560;2022-10-17T07:29:51;100362.53;;;8.51;59.58
33496;BME280;19836;55.812;37.560;2022-10-17T07:32:33;100330.66;;;8.36;60.96
33496;BME280;19836;55.812;37.560;2022-10-17T07:35:00;100346.69;;;8.36;61.63
33496;BME280;19836;55.812;37.560;2022-10-17T07:37:28;100355.50;;;8.44;62.11
33496;BME280;19836;55.812;37.560;2022-10-17T07:39:55;100342.06;;;8.49;61.75
33496;BME280;19836;55.812;37.560;2022-10-17T07:42:22;100345.56;;;8.57;61.57
33496;BME280;19836;55.812;37.560;2022-10-17T07:44:49;100343.72;;;8.60;61.69
33496;BME280;19836;55.812;37.560;2022-10-17T07:47:15;100340.03;;;8.69;61.71
33496;BME280;19836;55.812;37.560;2022-10-17T07:49:42;100330.91;;;8.83;61.62
33496;BME280;19836;55.812;37.560;2022-10-17T07:52:10;100335.13;;;9.01;60.27
33496;BME280;19836;55.812;37.560;2022-10-17T07:54:37;100329.72;;;9.07;60.03
33496;BME280;19836;55.812;37.560;2022-10-17T07:57:03;100333.16;;;9.13;59.80
33496;BME280;19836;55.812;37.560;2022-10-17T07:59:29;100333.25;;;9.06;59.70
33496;BME280;19836;55.812;37.560;2022-10-17T08:01:57;100330.81;;;8.91;60.05
33496;BME280;19836;55.812;37.560;2022-10-17T08:04:24;100341.66;;;8.80;60.73
33496;BME280;19836;55.812;37.560;2022-10-17T08:06:50;100346.19;;;8.75;61.02
33496;BME280;19836;55.812;37.560;2022-10-17T08:09:18;100346.19;;;8.75;61.34
33496;BME280;19836;55.812;37.560;2022-10-17T08:11:44;100340.06;;;8.67;61.90
33496;BME280;19836;55.812;37.560;2022-10-17T08:14:12;100350.84;;;8.58;62.56
33496;BME280;19836;55.812;37.560;2022-10-17T08:16:41;100339.44;;;8.46;63.08
33496;BME280;19836;55.812;37.560;2022-10-17T08:19:08;100345.75;;;8.42;63.62
33496;BME280;19836;55.812;37.560;2022-10-17T08:21:36;100354.59;;;8.45;64.06
33496;BME280;19836;55.812;37.560;2022-10-17T08:24:03;100349.19;;;8.48;64.33
33496;BME280;19836;55.812;37.560;2022-10-17T08:26:29;100343.84;;;8.48;64.21
33496;BME280;19836;55.812;37.560;2022-10-17T08:28:55;100338.41;;;8.57;64.47
33496;BME280;19836;55.812;37.560;2022-10-17T08:31:21;100330.19;;;8.72;64.38
33496;BME280;19836;55.812;37.560;2022-10-17T08:33:49;100333.47;;;8.92;64.07
33496;BME280;19836;55.812;37.560;2022-10-17T08:36:17;100337.63;;;9.14;63.88
33496;BME280;19836;55.812;37.560;2022-10-17T08:38:44;100321.38;;;9.26;63.33
33496;BME280;19836;55.812;37.560;2022-10-17T08:46:45;100302.25;;;9.52;62.28
33496;BME280;19836;55.812;37.560;2022-10-17T08:49:19;100313.78;;;9.55;62.19
33496;BME280;19836;55.812;37.560;2022-10-17T08:51:53;100310.22;;;9.53;61.95
33496;BME280;19836;55.812;37.560;2022-10-17T08:54:50;100315.53;;;9.56;62.07
33496;BME280;19836;55.812;37.560;2022-10-17T08:57:16;100336.94;;;9.56;61.54
33496;BME280;19836;55.812;37.560;2022-10-17T08:59:43;100336.09;;;9.54;61.99
33496;BME280;19836;55.812;37.560;2022-10-17T09:02:27;100342.31;;;9.53;61.58
33496;BME280;19836;55.812;37.560;2022-10-17T09:08:11;100315.88;;;9.37;62.45
33496;BME280;19836;55.812;37.560;2022-10-17T09:10:50;100308.91;;;9.27;62.81
33496;BME280;19836;55.812;37.560;2022-10-17T09:18:40;100307.06;;;9.29;64.11
33496;BME280;19836;55.812;37.560;2022-10-17T09:21:18;100304.66;;;9.12;64.90
33496;BME280;19836;55.812;37.560;2022-10-17T09:23:54;100317.38;;;8.97;65.50
33496;BME280;19836;55.812;37.560;2022-10-17T09:26:21;100336.31;;;8.80;66.27
33496;BME280;19836;55.812;37.560;2022-10-17T09:28:53;100330.31;;;8.63;67.73
33496;BME280;19836;55.812;37.560;2022-10-17T09:31:28;100329.56;;;8.52;68.93
33496;BME280;19836;55.812;37.560;2022-10-17T09:33:59;100326.03;;;8.50;69.83
33496;BME280;19836;55.812;37.560;2022-10-17T09:36:30;100315.34;;;8.50;70.89
33496;BME280;19836;55.812;37.560;2022-10-17T09:39:12;100296.66;;;8.50;71.64
33496;BME280;19836;55.812;37.560;2022-10-17T09:41:41;100289.50;;;8.52;72.45
33496;BME280;19836;55.812;37.560;2022-10-17T09:47:21;100303.75;;;8.51;73.48
33496;BME280;19836;55.812;37.560;2022-10-17T09:49:49;100308.19;;;8.52;73.59
33496;BME280;19836;55.812;37.560;2022-10-17T09:52:18;100319.81;;;8.50;74.08
33496;BME280;19836;55.812;37.560;2022-10-17T09:54:51;100288.66;;;8.50;74.54
33496;BME280;19836;55.812;37.560;2022-10-17T09:57:19;100272.66;;;8.47;74.51
33496;BME280;19836;55.812;37.560;2022-10-17T09:59:47;100269.91;;;8.53;74.80
33496;BME280;19836;55.812;37.560;2022-10-17T10:02:24;100278.84;;;8.51;74.84
33496;BME280;19836;55.812;37.560;2022-10-17T10:04:57;100278.84;;;8.51;74.91
33496;BME280;19836;55.812;37.560;2022-10-17T10:07:25;100260.97;;;8.56;74.76
33496;BME280;19836;55.812;37.560;2022-10-17T10:09:52;100260.03;;;8.58;74.88
33496;BME280;19836;55.812;37.560;2022-10-17T10:12:20;100258.19;;;8.63;74.72
33496;BME280;19836;55.812;37.560;2022-10-17T10:14:48;100255.50;;;8.65;74.89
33496;BME280;19836;55.812;37.560;2022-10-17T10:20:00;100248.38;;;8.67;74.32
33496;BME280;19836;55.812;37.560;2022-10-17T10:22:26;100245.75;;;8.62;74.30
33496;BME280;19836;55.812;37.560;2022-10-17T10:25:15;100242.16;;;8.63;74.20
33496;BME280;19836;55.812;37.560;2022-10-17T10:27:43;100231.41;;;8.69;74.40
33496;BME280;19836;55.812;37.560;2022-10-17T10:30:29;100223.16;;;8.84;74.60
33496;BME280;19836;55.812;37.560;2022-10-17T10:32:57;100221.22;;;8.94;74.27
33496;BME280;19836;55.812;37.560;2022-10-17T10:35:34;100227.34;;;9.00;74.04
33496;BME280;19836;55.812;37.560;2022-10-17T10:38:06;100232.50;;;9.11;73.79
33496;BME280;19836;55.812;37.560;2022-10-17T10:40:54;100235.03;;;9.18;73.41
33496;BME280;19836;55.812;37.560;2022-10-17T10:43:40;100232.44;;;9.17;73.56
33496;BME280;19836;55.812;37.560;2022-10-17T10:46:27;100239.41;;;9.25;73.56
33496;BME280;19836;55.812;37.560;2022-10-17T10:48:58;100224.28;;;9.24;73.55
33496;BME280;19836;55.812;37.560;2022-10-17T10:51:35;100218.03;;;9.24;73.37
33496;BME280;19836;55.812;37.560;2022-10-17T10:54:16;100213.50;;;9.27;73.41
33496;BME280;19836;55.812;37.560;2022-10-17T10:56:57;100203.56;;;9.37;72.87
33496;BME280;19836;55.812;37.560;2022-10-17T10:59:34;100203.56;;;9.35;72.86
33496;BME280;19836;55.812;37.560;2022-10-17T11:02:29;100201.75;;;9.37;72.43
33496;BME280;19836;55.812;37.560;2022-10-17T11:05:17;100198.25;;;9.34;72.08
33496;BME280;19836;55.812;37.560;2022-10-17T11:11:06;100194.41;;;9.48;72.37
33496;BME280;19836;55.812;37.560;2022-10-17T11:14:10;100199.69;;;9.51;72.55
33496;BME280;19836;55.812;37.560;2022-10-17T11:22:15;100200.59;;;9.52;72.47
33496;BME280;19836;55.812;37.560;2022-10-17T11:24:50;100204.16;;;9.51;72.43
33496;BME280;19836;55.812;37.560;2022-10-17T11:27:27;100216.72;;;9.47;72.55
33496;BME280;19836;55.812;37.560;2022-10-17T11:29:55;100208.81;;;9.41;72.71
33496;BME280;19836;55.812;37.560;2022-10-17T11:32:37;100191.88;;;9.41;72.61
33496;BME280;19836;55.812;37.560;2022-10-17T11:35:28;100184.69;;;9.44;72.77
33496;BME280;19836;55.812;37.560;2022-10-17T11:40:34;100192.63;;;9.47;73.07
33496;BME280;19836;55.812;37.560;2022-10-17T11:43:05;100187.31;;;9.46;73.14
33496;BME280;19836;55.812;37.560;2022-10-17T11:45:41;100173.84;;;9.52;73.80
33496;BME280;19836;55.812;37.560;2022-10-17T11:48:29;100164.00;;;9.52;73.39
33496;BME280;19836;55.812;37.560;2022-10-17T11:51:17;100159.56;;;9.53;73.96
33496;BME280;19836;55.812;37.560;2022-10-17T11:54:15;100161.28;;;9.57;73.70
33496;BME280;19836;55.812;37.560;2022-10-17T11:56:52;100141.75;;;9.52;73.93
33496;BME280;19836;55.812;37.560;2022-10-17T12:02:15;100154.19;;;9.54;74.27
33496;BME280;19836;55.812;37.560;2022-10-17T12:10:30;100146.25;;;9.48;74.92
33496;BME280;19836;55.812;37.560;2022-10-17T12:14:00;100140.81;;;9.54;74.69
33496;BME280;19836;55.812;37.560;2022-10-17T12:21:53;100138.97;;;9.56;75.33
33496;BME280;19836;55.812;37.560;2022-10-17T12:29:50;100127.34;;;9.57;75.46
33496;BME280;19836;55.812;37.560;2022-10-17T12:32:24;100164.03;;;9.51;75.56
33496;BME280;19836;55.812;37.560;2022-10-17T12:34:55;100164.97;;;9.48;75.56
33496;BME280;19836;55.812;37.560;2022-10-17T12:43:01;100165.88;;;9.47;76.24
33496;BME280;19836;55.812;37.560;2022-10-17T12:45:51;100172.00;;;9.54;76.40
33496;BME280;19836;55.812;37.560;2022-10-17T12:51:07;100178.19;;;9.57;76.46
33496;BME280;19836;55.812;37.560;2022-10-17T12:56:17;100194.44;;;9.47;76.49
33496;BME280;19836;55.812;37.560;2022-10-17T12:58:45;100204.25;;;9.46;76.73
33496;BME280;19836;55.812;37.560;2022-10-17T13:01:28;100221.13;;;9.50;76.83
33496;BME280;19836;55.812;37.560;2022-10-17T13:03:56;100234.50;;;9.50;76.95
33496;BME280;19836;55.812;37.560;2022-10-17T13:06:28;100224.72;;;9.49;76.89
33496;BME280;19836;55.812;37.560;2022-10-17T13:09:00;100232.78;;;9.46;77.23
33496;BME280;19836;55.812;37.560;2022-10-17T13:11:29;100240.91;;;9.41;77.03
33496;BME280;19836;55.812;37.560;2022-10-17T13:13:58;100247.19;;;9.37;77.08
33496;BME280;19836;55.812;37.560;2022-10-17T13:16:30;100257.88;;;9.39;77.53
33496;BME280;19836;55.812;37.560;2022-10-17T13:18:57;100244.41;;;9.43;77.82
33496;BME280;19836;55.812;37.560;2022-10-17T13:21:26;100254.19;;;9.46;77.62
33496;BME280;19836;55.812;37.560;2022-10-17T13:23:52;100247.97;;;9.44;77.86
33496;BME280;19836;55.812;37.560;2022-10-17T13:26:20;100233.69;;;9.46;77.79
33496;BME280;19836;55.812;37.560;2022-10-17T13:31:28;100238.91;;;9.52;77.59
33496;BME280;19836;55.812;37.560;2022-10-17T13:33:56;100238.03;;;9.52;77.57
33496;BME280;19836;55.812;37.560;2022-10-17T13:36:24;100235.41;;;9.49;78.10
33496;BME280;19836;55.812;37.560;2022-10-17T13:38:51;100216.72;;;9.46;78.07
33496;BME280;19836;55.812;37.560;2022-10-17T13:41:24;100221.16;;;9.48;78.22
33496;BME280;19836;55.812;37.560;2022-10-17T13:43:52;100201.63;;;9.43;78.12
33496;BME280;19836;55.812;37.560;2022-10-17T13:46:28;100206.00;;;9.47;78.44
33496;BME280;19836;55.812;37.560;2022-10-17T13:48:56;100196.25;;;9.45;78.73
33496;BME280;19836;55.812;37.560;2022-10-17T13:51:24;100190.91;;;9.43;78.67
33496;BME280;19836;55.812;37.560;2022-10-17T13:53:51;100182.00;;;9.44;78.77
33496;BME280;19836;55.812;37.560;2022-10-17T13:56:21;100181.91;;;9.50;78.84
33496;BME280;19836;55.812;37.560;2022-10-17T13:58:55;100173.78;;;9.55;78.61
33496;BME280;19836;55.812;37.560;2022-10-17T14:01:23;100172.78;;;9.60;78.58
33496;BME280;19836;55.812;37.560;2022-10-17T14:03:50;100156.66;;;9.63;78.57
33496;BME280;19836;55.812;37.560;2022-10-17T14:06:19;100157.56;;;9.62;78.53
33496;BME280;19836;55.812;37.560;2022-10-17T14:08:53;100160.25;;;9.62;78.33
33496;BME280;19836;55.812;37.560;2022-10-17T14:13:53;100169.31;;;9.55;78.49
33496;BME280;19836;55.812;37.560;2022-10-17T14:16:22;100156.94;;;9.48;78.17
33496;BME280;19836;55.812;37.560;2022-10-17T14:18:50;100155.22;;;9.46;78.66
33496;BME280;19836;55.812;37.560;2022-10-17T14:21:22;100163.34;;;9.41;78.94
33496;BME280;19836;55.812;37.560;2022-10-17T14:23:50;100166.00;;;9.43;78.58
33496;BME280;19836;55.812;37.560;2022-10-17T14:26:22;100168.53;;;9.49;79.09
33496;BME280;19836;55.812;37.560;2022-10-17T14:29:02;100174.72;;;9.52;78.50
33496;BME280;19836;55.812;37.560;2022-10-17T14:31:33;100165.72;;;9.56;78.68
33496;BME280;19836;55.812;37.560;2022-10-17T14:34:00;100169.22;;;9.58;78.84
33496;BME280;19836;55.812;37.560;2022-10-17T14:36:31;100161.16;;;9.61;78.90
33496;BME280;19836;55.812;37.560;2022-10-17T14:38:58;100170.91;;;9.65;78.31
33496;BME280;19836;55.812;37.560;2022-10-17T14:41:31;100171.72;;;9.69;78.19
33496;BME280;19836;55.812;37.560;2022-10-17T14:44:17;100155.63;;;9.70;78.02
33496;BME280;19836;55.812;37.560;2022-10-17T14:46:45;100169.03;;;9.69;78.29
33496;BME280;19836;55.812;37.560;2022-10-17T14:49:35;100149.38;;;9.71;78.13
33496;BME280;19836;55.812;37.560;2022-10-17T14:54:46;100154.03;;;9.62;78.28